WMT2610 LATI-LICC
Flight info
| Callsign | WMT2610 |
|---|---|
| Flight time | 1h 28m |
| Altitude | 35000 |
| Route | DIRES DCT PAPIZ DCT DODEL DCT PIMOR |
| Aircraft | A321/M-SDE3FGHIRWY/LB1 |
Departure
| Time | 2026-05-08 11:14 |
|---|---|
| Airport | Tirana International Airport Mother Teresa (LATI) |
Arrival
| Time | 2026-05-08 12:43 |
|---|---|
| Airport | Catania-Fontanarossa Airport (LICC) |
| Time | Latitude | Longitude | Altitude | Speed | Heading |
|---|---|---|---|---|---|
| 2026-05-08 10:28 | 41.42300 | 19.71472 | 117 ft | 0 kts | 264° |
| 2026-05-08 10:53 | 41.42302 | 19.71491 | 115 ft | 2 kts | 264° |
| 2026-05-08 10:53 | 41.42302 | 19.71515 | 117 ft | 3 kts | 295° |
| 2026-05-08 10:53 | 41.42291 | 19.71533 | 113 ft | 3 kts | 339° |
| 2026-05-08 10:54 | 41.42272 | 19.71539 | 115 ft | 2 kts | 354° |
| 2026-05-08 10:54 | 41.42267 | 19.71540 | 115 ft | 0 kts | 354° |
| 2026-05-08 11:01 | 41.42269 | 19.71540 | 115 ft | 1 kts | 354° |
| 2026-05-08 11:02 | 41.42286 | 19.71537 | 116 ft | 4 kts | 354° |
| 2026-05-08 11:02 | 41.42289 | 19.71537 | 115 ft | 0 kts | 354° |
| 2026-05-08 11:11 | 41.42310 | 19.71534 | 114 ft | 8 kts | 354° |
| 2026-05-08 11:11 | 41.42392 | 19.71525 | 113 ft | 14 kts | 355° |
| 2026-05-08 11:11 | 41.42498 | 19.71516 | 113 ft | 16 kts | 357° |
| 2026-05-08 11:11 | 41.42617 | 19.71492 | 114 ft | 17 kts | 351° |
| 2026-05-08 11:12 | 41.42680 | 19.71494 | 116 ft | 4 kts | 57° |
| 2026-05-08 11:12 | 41.42689 | 19.71531 | 116 ft | 5 kts | 91° |
| 2026-05-08 11:12 | 41.42674 | 19.71602 | 115 ft | 10 kts | 102° |
| 2026-05-08 11:12 | 41.42679 | 19.71696 | 117 ft | 12 kts | 84° |
| 2026-05-08 11:13 | 41.42687 | 19.71813 | 117 ft | 12 kts | 85° |
| 2026-05-08 11:13 | 41.42686 | 19.71890 | 117 ft | 3 kts | 123° |
| 2026-05-08 11:13 | 41.42659 | 19.71899 | 119 ft | 5 kts | 177° |
| 2026-05-08 11:13 | 41.42604 | 19.71908 | 117 ft | 16 kts | 173° |
| 2026-05-08 11:14 | 41.42287 | 19.71950 | 120 ft | 80 kts | 174° |
| 2026-05-08 11:14 | 41.41517 | 19.72052 | 123 ft | 139 kts | 174° |
| 2026-05-08 11:14 | 41.40501 | 19.72199 | 625 ft | 144 kts | 172° |
| 2026-05-08 11:14 | 41.39513 | 19.72340 | 1247 ft | 146 kts | 175° |
| 2026-05-08 11:15 | 41.38478 | 19.72475 | 1627 ft | 157 kts | 172° |
| 2026-05-08 11:15 | 41.37316 | 19.72628 | 1857 ft | 179 kts | 172° |
| 2026-05-08 11:15 | 41.35996 | 19.72799 | 2088 ft | 202 kts | 172° |
| 2026-05-08 11:15 | 41.34514 | 19.72994 | 2269 ft | 226 kts | 173° |
| 2026-05-08 11:16 | 41.32872 | 19.73210 | 2651 ft | 245 kts | 173° |
| 2026-05-08 11:16 | 41.31156 | 19.73433 | 3414 ft | 249 kts | 174° |
| 2026-05-08 11:16 | 41.29413 | 19.73660 | 4202 ft | 253 kts | 175° |
| 2026-05-08 11:16 | 41.27645 | 19.73890 | 4957 ft | 257 kts | 176° |
| 2026-05-08 11:17 | 41.25848 | 19.73952 | 5660 ft | 261 kts | 193° |
| 2026-05-08 11:17 | 41.24260 | 19.72847 | 6299 ft | 264 kts | 227° |
| 2026-05-08 11:17 | 41.23285 | 19.70812 | 6970 ft | 266 kts | 246° |
| 2026-05-08 11:17 | 41.22634 | 19.68505 | 7736 ft | 267 kts | 251° |
| 2026-05-08 11:18 | 41.22053 | 19.66149 | 8497 ft | 269 kts | 250° |
| 2026-05-08 11:18 | 41.21438 | 19.63799 | 9284 ft | 270 kts | 249° |
| 2026-05-08 11:18 | 41.20760 | 19.61470 | 10051 ft | 271 kts | 246° |
| 2026-05-08 11:18 | 41.20009 | 19.59102 | 10397 ft | 289 kts | 246° |
| 2026-05-08 11:19 | 41.19158 | 19.56575 | 10545 ft | 311 kts | 244° |
| 2026-05-08 11:19 | 41.18217 | 19.53882 | 10695 ft | 331 kts | 244° |
| 2026-05-08 11:19 | 41.17216 | 19.51077 | 11134 ft | 340 kts | 244° |
| 2026-05-08 11:19 | 41.16194 | 19.48230 | 11748 ft | 343 kts | 244° |
| 2026-05-08 11:20 | 41.15158 | 19.45350 | 12382 ft | 347 kts | 244° |
| 2026-05-08 11:20 | 41.14115 | 19.42455 | 12999 ft | 350 kts | 244° |
| 2026-05-08 11:20 | 41.13062 | 19.39526 | 13624 ft | 354 kts | 244° |
| 2026-05-08 11:20 | 41.12001 | 19.36564 | 14178 ft | 357 kts | 244° |
| 2026-05-08 11:21 | 41.10932 | 19.33574 | 14739 ft | 360 kts | 244° |
| 2026-05-08 11:21 | 41.09852 | 19.30553 | 15301 ft | 363 kts | 244° |
| 2026-05-08 11:21 | 41.08763 | 19.27525 | 15862 ft | 366 kts | 244° |
| 2026-05-08 11:21 | 41.07656 | 19.24461 | 16425 ft | 369 kts | 244° |
| 2026-05-08 11:22 | 41.06538 | 19.21380 | 16987 ft | 372 kts | 243° |
| 2026-05-08 11:22 | 41.05191 | 19.18492 | 17515 ft | 376 kts | 233° |
| 2026-05-08 11:22 | 41.03463 | 19.15873 | 18053 ft | 379 kts | 228° |
| 2026-05-08 11:22 | 41.01672 | 19.13285 | 18550 ft | 383 kts | 228° |
| 2026-05-08 11:23 | 40.99868 | 19.10674 | 19027 ft | 386 kts | 229° |
| 2026-05-08 11:23 | 40.98054 | 19.08043 | 19497 ft | 388 kts | 229° |
| 2026-05-08 11:23 | 40.96229 | 19.05392 | 19952 ft | 391 kts | 229° |
| 2026-05-08 11:23 | 40.94388 | 19.02720 | 20428 ft | 393 kts | 229° |
| 2026-05-08 11:24 | 40.92542 | 19.00044 | 20869 ft | 396 kts | 229° |
| 2026-05-08 11:24 | 40.90677 | 18.97347 | 21308 ft | 399 kts | 229° |
| 2026-05-08 11:24 | 40.88670 | 18.94802 | 21729 ft | 403 kts | 220° |
| 2026-05-08 11:24 | 40.86363 | 18.92657 | 22141 ft | 406 kts | 216° |
| 2026-05-08 11:25 | 40.84054 | 18.90508 | 22561 ft | 407 kts | 222° |
| 2026-05-08 11:25 | 40.82054 | 18.87848 | 22946 ft | 409 kts | 227° |
| 2026-05-08 11:25 | 40.79940 | 18.85324 | 23324 ft | 413 kts | 215° |
| 2026-05-08 11:25 | 40.77413 | 18.83460 | 23655 ft | 419 kts | 209° |
| 2026-05-08 11:26 | 40.74801 | 18.81750 | 23971 ft | 421 kts | 208° |
| 2026-05-08 11:26 | 40.72190 | 18.79963 | 24313 ft | 423 kts | 211° |
| 2026-05-08 11:26 | 40.69671 | 18.78052 | 24693 ft | 424 kts | 213° |
| 2026-05-08 11:26 | 40.67146 | 18.75946 | 25055 ft | 426 kts | 215° |
| 2026-05-08 11:27 | 40.64681 | 18.73753 | 25424 ft | 427 kts | 216° |
| 2026-05-08 11:27 | 40.62239 | 18.71518 | 25779 ft | 429 kts | 216° |
| 2026-05-08 11:27 | 40.59811 | 18.69288 | 26129 ft | 431 kts | 216° |
| 2026-05-08 11:27 | 40.57334 | 18.67041 | 26466 ft | 434 kts | 216° |
| 2026-05-08 11:28 | 40.54834 | 18.64808 | 26787 ft | 435 kts | 215° |
| 2026-05-08 11:28 | 40.52311 | 18.62590 | 27093 ft | 437 kts | 215° |
| 2026-05-08 11:28 | 40.49773 | 18.60383 | 27425 ft | 440 kts | 214° |
| 2026-05-08 11:28 | 40.47213 | 18.58167 | 27771 ft | 442 kts | 214° |
| 2026-05-08 11:29 | 40.44642 | 18.55938 | 28101 ft | 444 kts | 215° |
| 2026-05-08 11:29 | 40.42057 | 18.53687 | 28417 ft | 446 kts | 215° |
| 2026-05-08 11:29 | 40.39475 | 18.51432 | 28732 ft | 447 kts | 215° |
| 2026-05-08 11:29 | 40.36884 | 18.49166 | 29160 ft | 446 kts | 215° |
| 2026-05-08 11:30 | 40.34305 | 18.46913 | 29597 ft | 445 kts | 215° |
| 2026-05-08 11:30 | 40.31729 | 18.44667 | 29996 ft | 444 kts | 216° |
| 2026-05-08 11:30 | 40.29158 | 18.42428 | 30392 ft | 443 kts | 216° |
| 2026-05-08 11:30 | 40.26594 | 18.40197 | 30802 ft | 442 kts | 216° |
| 2026-05-08 11:31 | 40.24037 | 18.37976 | 31187 ft | 441 kts | 217° |
| 2026-05-08 11:31 | 40.21489 | 18.35768 | 31540 ft | 440 kts | 217° |
| 2026-05-08 11:31 | 40.18970 | 18.33586 | 31929 ft | 438 kts | 217° |
| 2026-05-08 11:31 | 40.16429 | 18.31389 | 32303 ft | 437 kts | 218° |
| 2026-05-08 11:32 | 40.13894 | 18.29203 | 32672 ft | 436 kts | 218° |
| 2026-05-08 11:32 | 40.11373 | 18.27031 | 33042 ft | 434 kts | 218° |
| 2026-05-08 11:32 | 40.08848 | 18.24860 | 33403 ft | 433 kts | 218° |
| 2026-05-08 11:32 | 40.06343 | 18.22705 | 33744 ft | 432 kts | 218° |
| 2026-05-08 11:33 | 40.03842 | 18.20549 | 34091 ft | 430 kts | 219° |
| 2026-05-08 11:33 | 40.01352 | 18.18397 | 34388 ft | 429 kts | 219° |
| 2026-05-08 11:33 | 39.98869 | 18.16252 | 34689 ft | 427 kts | 219° |
| 2026-05-08 11:33 | 39.96390 | 18.14114 | 34904 ft | 427 kts | 219° |
| 2026-05-08 11:34 | 39.93910 | 18.11981 | 34952 ft | 427 kts | 219° |
| 2026-05-08 11:34 | 39.88961 | 18.07739 | 34956 ft | 425 kts | 219° |
| 2026-05-08 11:35 | 39.84051 | 18.03535 | 34958 ft | 425 kts | 219° |
| 2026-05-08 11:35 | 39.79110 | 17.99312 | 34959 ft | 425 kts | 220° |
| 2026-05-08 11:36 | 39.74167 | 17.95103 | 34956 ft | 424 kts | 220° |
| 2026-05-08 11:36 | 39.69228 | 17.90898 | 34958 ft | 424 kts | 220° |
| 2026-05-08 11:37 | 39.64284 | 17.86694 | 34970 ft | 424 kts | 220° |
| 2026-05-08 11:37 | 39.59349 | 17.82507 | 34972 ft | 423 kts | 220° |
| 2026-05-08 11:38 | 39.54430 | 17.78337 | 34972 ft | 422 kts | 221° |
| 2026-05-08 11:38 | 39.49559 | 17.74229 | 34978 ft | 418 kts | 219° |
| 2026-05-08 11:39 | 39.44693 | 17.70124 | 34970 ft | 417 kts | 220° |
| 2026-05-08 11:39 | 39.39840 | 17.66028 | 34972 ft | 416 kts | 220° |
| 2026-05-08 11:40 | 39.34991 | 17.61953 | 34977 ft | 416 kts | 220° |
| 2026-05-08 11:40 | 39.30145 | 17.57879 | 34986 ft | 415 kts | 220° |
| 2026-05-08 11:41 | 39.25309 | 17.53814 | 34985 ft | 414 kts | 221° |
| 2026-05-08 11:41 | 39.20508 | 17.49798 | 34987 ft | 414 kts | 221° |
| 2026-05-08 11:42 | 39.15683 | 17.45761 | 34988 ft | 413 kts | 221° |
| 2026-05-08 11:42 | 39.10863 | 17.41733 | 34981 ft | 413 kts | 221° |
| 2026-05-08 11:43 | 39.06046 | 17.37723 | 34985 ft | 412 kts | 221° |
| 2026-05-08 11:43 | 39.01233 | 17.33726 | 34977 ft | 412 kts | 221° |
| 2026-05-08 11:44 | 38.96422 | 17.29738 | 34972 ft | 411 kts | 222° |
| 2026-05-08 11:44 | 38.91649 | 17.25783 | 34966 ft | 411 kts | 222° |
| 2026-05-08 11:45 | 38.86846 | 17.21807 | 34963 ft | 411 kts | 222° |
| 2026-05-08 11:45 | 38.82040 | 17.17831 | 34964 ft | 411 kts | 222° |
| 2026-05-08 11:46 | 38.77227 | 17.13853 | 34966 ft | 412 kts | 222° |
| 2026-05-08 11:46 | 38.76217 | 17.13019 | 34963 ft | 412 kts | 222° |
| 2026-05-08 11:47 | 38.73234 | 17.10560 | 34970 ft | 412 kts | 222° |
| 2026-05-08 11:47 | 38.69619 | 17.07586 | 34967 ft | 413 kts | 222° |
| 2026-05-08 11:48 | 38.64780 | 17.03620 | 34975 ft | 413 kts | 222° |
| 2026-05-08 11:48 | 38.59932 | 16.99648 | 34978 ft | 414 kts | 222° |
| 2026-05-08 11:49 | 38.55073 | 16.95672 | 34973 ft | 415 kts | 222° |
| 2026-05-08 11:49 | 38.50199 | 16.91684 | 34974 ft | 416 kts | 222° |
| 2026-05-08 11:50 | 38.45318 | 16.87698 | 34967 ft | 417 kts | 222° |
| 2026-05-08 11:50 | 38.40425 | 16.83709 | 34967 ft | 418 kts | 221° |
| 2026-05-08 11:51 | 38.35554 | 16.79746 | 34965 ft | 418 kts | 221° |
| 2026-05-08 11:51 | 38.30635 | 16.75751 | 34959 ft | 419 kts | 221° |
| 2026-05-08 11:52 | 38.25719 | 16.71763 | 34955 ft | 420 kts | 221° |
| 2026-05-08 11:52 | 38.20779 | 16.67772 | 34955 ft | 420 kts | 221° |
| 2026-05-08 11:53 | 38.15838 | 16.63785 | 34953 ft | 421 kts | 221° |
| 2026-05-08 11:53 | 38.10897 | 16.59788 | 34952 ft | 421 kts | 221° |
| 2026-05-08 11:54 | 38.05945 | 16.55797 | 34958 ft | 422 kts | 221° |
| 2026-05-08 11:54 | 38.01019 | 16.51833 | 34957 ft | 422 kts | 221° |
| 2026-05-08 11:55 | 37.96059 | 16.47855 | 34956 ft | 422 kts | 220° |
| 2026-05-08 11:55 | 37.91084 | 16.43869 | 34952 ft | 423 kts | 220° |
| 2026-05-08 11:56 | 37.86112 | 16.39884 | 34952 ft | 423 kts | 220° |
| 2026-05-08 11:56 | 37.81127 | 16.35902 | 34950 ft | 423 kts | 220° |
| 2026-05-08 11:57 | 37.76182 | 16.31957 | 34876 ft | 425 kts | 220° |
| 2026-05-08 11:57 | 37.73684 | 16.29968 | 34635 ft | 424 kts | 220° |
| 2026-05-08 11:57 | 37.71179 | 16.27973 | 34382 ft | 425 kts | 220° |
| 2026-05-08 11:57 | 37.68677 | 16.25982 | 33702 ft | 428 kts | 220° |
| 2026-05-08 11:58 | 37.66152 | 16.23961 | 32887 ft | 430 kts | 221° |
| 2026-05-08 11:58 | 37.63846 | 16.21617 | 32126 ft | 421 kts | 232° |
| 2026-05-08 11:58 | 37.61980 | 16.18815 | 31310 ft | 415 kts | 242° |
| 2026-05-08 11:59 | 37.59701 | 16.12220 | 29439 ft | 412 kts | 260° |
| 2026-05-08 11:59 | 37.59307 | 16.08649 | 28591 ft | 410 kts | 266° |
| 2026-05-08 11:59 | 37.59025 | 16.05102 | 28090 ft | 404 kts | 265° |
| 2026-05-08 11:59 | 37.58737 | 16.01601 | 27492 ft | 399 kts | 265° |
| 2026-05-08 12:00 | 37.58449 | 15.98185 | 26910 ft | 395 kts | 265° |
| 2026-05-08 12:00 | 37.58156 | 15.94758 | 26323 ft | 390 kts | 265° |
| 2026-05-08 12:00 | 37.57864 | 15.91374 | 25743 ft | 386 kts | 265° |
| 2026-05-08 12:00 | 37.57576 | 15.88023 | 25166 ft | 383 kts | 265° |
| 2026-05-08 12:01 | 37.57416 | 15.84695 | 24584 ft | 379 kts | 271° |
| 2026-05-08 12:01 | 37.57457 | 15.81393 | 24000 ft | 376 kts | 271° |
| 2026-05-08 12:01 | 37.57495 | 15.78097 | 23391 ft | 374 kts | 271° |
| 2026-05-08 12:01 | 37.57529 | 15.74833 | 22781 ft | 370 kts | 270° |
| 2026-05-08 12:02 | 37.57557 | 15.71648 | 22223 ft | 365 kts | 270° |
| 2026-05-08 12:02 | 37.57584 | 15.68465 | 21668 ft | 361 kts | 270° |
| 2026-05-08 12:02 | 37.57611 | 15.65319 | 21132 ft | 357 kts | 270° |
| 2026-05-08 12:02 | 37.57640 | 15.62209 | 20616 ft | 354 kts | 270° |
| 2026-05-08 12:03 | 37.57667 | 15.59112 | 20109 ft | 351 kts | 270° |
| 2026-05-08 12:03 | 37.57691 | 15.56050 | 19615 ft | 349 kts | 270° |
| 2026-05-08 12:03 | 37.57711 | 15.53146 | 19153 ft | 347 kts | 270° |
| 2026-05-08 12:03 | 37.57731 | 15.50116 | 18665 ft | 345 kts | 270° |
| 2026-05-08 12:04 | 37.57748 | 15.47106 | 18177 ft | 342 kts | 270° |
| 2026-05-08 12:04 | 37.57766 | 15.44118 | 17639 ft | 339 kts | 270° |
| 2026-05-08 12:04 | 37.57784 | 15.41162 | 17156 ft | 335 kts | 269° |
| 2026-05-08 12:04 | 37.57778 | 15.38254 | 16828 ft | 326 kts | 269° |
| 2026-05-08 12:05 | 37.57748 | 15.35462 | 16693 ft | 312 kts | 268° |
| 2026-05-08 12:05 | 37.57706 | 15.32777 | 16563 ft | 299 kts | 268° |
| 2026-05-08 12:05 | 37.57661 | 15.30246 | 16447 ft | 287 kts | 268° |
| 2026-05-08 12:05 | 37.57618 | 15.27781 | 16320 ft | 275 kts | 268° |
| 2026-05-08 12:06 | 37.57580 | 15.25425 | 16194 ft | 264 kts | 268° |
| 2026-05-08 12:06 | 37.57545 | 15.23151 | 16070 ft | 254 kts | 268° |
| 2026-05-08 12:06 | 37.57512 | 15.20968 | 15867 ft | 247 kts | 268° |
| 2026-05-08 12:06 | 37.57492 | 15.19544 | 15710 ft | 244 kts | 268° |
| 2026-05-08 12:07 | 37.57462 | 15.17421 | 15466 ft | 241 kts | 268° |
| 2026-05-08 12:07 | 37.57433 | 15.15307 | 15220 ft | 242 kts | 267° |
| 2026-05-08 12:07 | 37.57345 | 15.13196 | 14976 ft | 240 kts | 263° |
| 2026-05-08 12:07 | 37.57181 | 15.11100 | 14747 ft | 239 kts | 264° |
| 2026-05-08 12:08 | 37.56996 | 15.09024 | 14508 ft | 238 kts | 263° |
| 2026-05-08 12:08 | 37.56809 | 15.06960 | 14275 ft | 236 kts | 264° |
| 2026-05-08 12:08 | 37.56624 | 15.04907 | 14050 ft | 235 kts | 264° |
| 2026-05-08 12:08 | 37.56442 | 15.02862 | 13754 ft | 234 kts | 263° |
| 2026-05-08 12:09 | 37.56263 | 15.00824 | 13394 ft | 233 kts | 264° |
| 2026-05-08 12:09 | 37.56087 | 14.98789 | 13045 ft | 233 kts | 264° |
| 2026-05-08 12:09 | 37.55912 | 14.96768 | 12703 ft | 232 kts | 263° |
| 2026-05-08 12:09 | 37.55741 | 14.94770 | 12364 ft | 231 kts | 264° |
| 2026-05-08 12:10 | 37.55568 | 14.92755 | 12022 ft | 231 kts | 263° |
| 2026-05-08 12:10 | 37.55394 | 14.90744 | 11694 ft | 231 kts | 263° |
| 2026-05-08 12:10 | 37.55219 | 14.88729 | 11353 ft | 231 kts | 263° |
| 2026-05-08 12:10 | 37.55047 | 14.86712 | 11012 ft | 232 kts | 263° |
| 2026-05-08 12:11 | 37.54876 | 14.84694 | 10671 ft | 232 kts | 263° |
| 2026-05-08 12:11 | 37.54703 | 14.82676 | 10330 ft | 232 kts | 263° |
| 2026-05-08 12:11 | 37.54530 | 14.80658 | 10014 ft | 231 kts | 263° |
| 2026-05-08 12:11 | 37.54357 | 14.78656 | 9798 ft | 225 kts | 262° |
| 2026-05-08 12:12 | 37.54191 | 14.76736 | 9706 ft | 216 kts | 263° |
| 2026-05-08 12:12 | 37.54029 | 14.74860 | 9609 ft | 215 kts | 263° |
| 2026-05-08 12:12 | 37.53865 | 14.72974 | 9273 ft | 217 kts | 262° |
| 2026-05-08 12:12 | 37.53700 | 14.71096 | 8978 ft | 215 kts | 262° |
| 2026-05-08 12:13 | 37.53538 | 14.69226 | 8684 ft | 214 kts | 262° |
| 2026-05-08 12:13 | 37.53375 | 14.67359 | 8398 ft | 215 kts | 263° |
| 2026-05-08 12:13 | 37.53210 | 14.65492 | 8109 ft | 215 kts | 263° |
| 2026-05-08 12:13 | 37.53046 | 14.63626 | 7912 ft | 213 kts | 263° |
| 2026-05-08 12:14 | 37.52881 | 14.61752 | 7841 ft | 217 kts | 263° |
| 2026-05-08 12:14 | 37.52713 | 14.59860 | 7729 ft | 218 kts | 263° |
| 2026-05-08 12:14 | 37.52544 | 14.57967 | 7630 ft | 217 kts | 263° |
| 2026-05-08 12:14 | 37.52380 | 14.56102 | 7525 ft | 216 kts | 263° |
| 2026-05-08 12:15 | 37.52221 | 14.54268 | 7439 ft | 208 kts | 263° |
| 2026-05-08 12:15 | 37.52062 | 14.52470 | 7322 ft | 206 kts | 263° |
| 2026-05-08 12:15 | 37.51902 | 14.50675 | 7219 ft | 206 kts | 263° |
| 2026-05-08 12:15 | 37.51741 | 14.48877 | 7113 ft | 207 kts | 264° |
| 2026-05-08 12:16 | 37.51580 | 14.47078 | 7012 ft | 206 kts | 263° |
| 2026-05-08 12:16 | 37.51146 | 14.45379 | 6895 ft | 208 kts | 236° |
| 2026-05-08 12:16 | 37.49951 | 14.44346 | 6795 ft | 219 kts | 199° |
| 2026-05-08 12:16 | 37.48389 | 14.44341 | 6672 ft | 229 kts | 181° |
| 2026-05-08 12:17 | 37.46793 | 14.44560 | 6546 ft | 231 kts | 180° |
| 2026-05-08 12:17 | 37.45194 | 14.44799 | 6420 ft | 232 kts | 180° |
| 2026-05-08 12:17 | 37.43598 | 14.45124 | 6292 ft | 236 kts | 167° |
| 2026-05-08 12:17 | 37.42241 | 14.46332 | 6162 ft | 249 kts | 130° |
| 2026-05-08 12:18 | 37.41649 | 14.48349 | 6026 ft | 255 kts | 92° |
| 2026-05-08 12:18 | 37.41789 | 14.50557 | 5893 ft | 252 kts | 83° |
| 2026-05-08 12:18 | 37.41991 | 14.52750 | 5764 ft | 252 kts | 83° |
| 2026-05-08 12:18 | 37.42198 | 14.54939 | 5633 ft | 251 kts | 83° |
| 2026-05-08 12:19 | 37.42401 | 14.57120 | 5512 ft | 250 kts | 83° |
| 2026-05-08 12:19 | 37.42596 | 14.59274 | 5385 ft | 248 kts | 83° |
| 2026-05-08 12:19 | 37.42787 | 14.61427 | 5272 ft | 247 kts | 83° |
| 2026-05-08 12:19 | 37.42976 | 14.63562 | 5149 ft | 244 kts | 84° |
| 2026-05-08 12:20 | 37.43157 | 14.65670 | 5041 ft | 242 kts | 83° |
| 2026-05-08 12:20 | 37.43335 | 14.67777 | 5011 ft | 243 kts | 83° |
| 2026-05-08 12:20 | 37.43517 | 14.69881 | 5020 ft | 242 kts | 83° |
| 2026-05-08 12:20 | 37.43700 | 14.71963 | 5017 ft | 232 kts | 84° |
| 2026-05-08 12:21 | 37.43871 | 14.73921 | 4822 ft | 219 kts | 84° |
| 2026-05-08 12:21 | 37.44035 | 14.75804 | 4548 ft | 213 kts | 84° |
| 2026-05-08 12:21 | 37.44192 | 14.77619 | 4277 ft | 205 kts | 83° |
| 2026-05-08 12:21 | 37.44346 | 14.79389 | 4018 ft | 201 kts | 84° |
| 2026-05-08 12:22 | 37.44495 | 14.81101 | 3759 ft | 198 kts | 83° |
| 2026-05-08 12:22 | 37.44642 | 14.82807 | 3504 ft | 196 kts | 84° |
| 2026-05-08 12:22 | 37.44790 | 14.84511 | 3251 ft | 195 kts | 85° |
| 2026-05-08 12:22 | 37.44936 | 14.86208 | 2995 ft | 195 kts | 84° |
| 2026-05-08 12:23 | 37.45082 | 14.87897 | 2747 ft | 192 kts | 85° |
| 2026-05-08 12:23 | 37.45219 | 14.89493 | 2515 ft | 176 kts | 84° |
| 2026-05-08 12:23 | 37.45346 | 14.90977 | 2274 ft | 167 kts | 84° |
| 2026-05-08 12:23 | 37.45469 | 14.92410 | 2065 ft | 163 kts | 84° |
| 2026-05-08 12:24 | 37.45589 | 14.93821 | 1864 ft | 162 kts | 86° |
| 2026-05-08 12:24 | 37.45708 | 14.95226 | 1602 ft | 161 kts | 83° |
| 2026-05-08 12:24 | 37.45829 | 14.96637 | 1436 ft | 166 kts | 85° |
| 2026-05-08 12:24 | 37.45952 | 14.98032 | 1271 ft | 155 kts | 85° |
| 2026-05-08 12:25 | 37.46060 | 14.99355 | 1070 ft | 149 kts | 85° |
| 2026-05-08 12:25 | 37.46150 | 15.00641 | 821 ft | 145 kts | 84° |
| 2026-05-08 12:25 | 37.46261 | 15.01848 | 636 ft | 136 kts | 85° |
| 2026-05-08 12:25 | 37.46367 | 15.03041 | 488 ft | 139 kts | 83° |
| 2026-05-08 12:26 | 37.46456 | 15.04245 | 301 ft | 136 kts | 81° |
| 2026-05-08 12:26 | 37.46576 | 15.05427 | 106 ft | 136 kts | 83° |
| 2026-05-08 12:26 | 37.46672 | 15.06573 | 49 ft | 121 kts | 83° |
| 2026-05-08 12:26 | 37.46755 | 15.07685 | 649 ft | 134 kts | 85° |
| 2026-05-08 12:27 | 37.46849 | 15.08885 | 1459 ft | 140 kts | 84° |
| 2026-05-08 12:27 | 37.46983 | 15.10150 | 1990 ft | 153 kts | 81° |
| 2026-05-08 12:27 | 37.47131 | 15.11568 | 2222 ft | 174 kts | 82° |
| 2026-05-08 12:27 | 37.47296 | 15.13171 | 2402 ft | 197 kts | 83° |
| 2026-05-08 12:28 | 37.47489 | 15.14979 | 2638 ft | 219 kts | 82° |
| 2026-05-08 12:28 | 37.47695 | 15.16972 | 2870 ft | 240 kts | 83° |
| 2026-05-08 12:28 | 37.47921 | 15.19084 | 2984 ft | 245 kts | 82° |
| 2026-05-08 12:28 | 37.48148 | 15.21177 | 3002 ft | 244 kts | 82° |
| 2026-05-08 12:29 | 37.48381 | 15.23296 | 3009 ft | 245 kts | 82° |
| 2026-05-08 12:29 | 37.48610 | 15.25409 | 3008 ft | 243 kts | 82° |
| 2026-05-08 12:29 | 37.48882 | 15.27512 | 3004 ft | 243 kts | 72° |
| 2026-05-08 12:29 | 37.49674 | 15.29358 | 3020 ft | 242 kts | 45° |
| 2026-05-08 12:30 | 37.51050 | 15.30549 | 3569 ft | 246 kts | 19° |
| 2026-05-08 12:30 | 37.52781 | 15.30880 | 3933 ft | 261 kts | 349° |
| 2026-05-08 12:30 | 37.54466 | 15.30057 | 4566 ft | 263 kts | 320° |
| 2026-05-08 12:30 | 37.55652 | 15.28327 | 4911 ft | 260 kts | 292° |
| 2026-05-08 12:31 | 37.56085 | 15.26149 | 4990 ft | 257 kts | 277° |
| 2026-05-08 12:31 | 37.56338 | 15.23924 | 5007 ft | 256 kts | 277° |
| 2026-05-08 12:31 | 37.56596 | 15.21699 | 5008 ft | 257 kts | 277° |
| 2026-05-08 12:31 | 37.56861 | 15.19473 | 5008 ft | 257 kts | 277° |
| 2026-05-08 12:32 | 37.57131 | 15.17249 | 5008 ft | 257 kts | 277° |
| 2026-05-08 12:32 | 37.57368 | 15.15020 | 5008 ft | 256 kts | 272° |
| 2026-05-08 12:32 | 37.57264 | 15.12814 | 5004 ft | 255 kts | 264° |
| 2026-05-08 12:32 | 37.57074 | 15.10586 | 5009 ft | 256 kts | 264° |
| 2026-05-08 12:33 | 37.56887 | 15.08369 | 5003 ft | 248 kts | 264° |
| 2026-05-08 12:33 | 37.56709 | 15.06267 | 5002 ft | 236 kts | 264° |
| 2026-05-08 12:33 | 37.56537 | 15.04228 | 5007 ft | 234 kts | 264° |
| 2026-05-08 12:33 | 37.56366 | 15.02185 | 5008 ft | 235 kts | 263° |
| 2026-05-08 12:34 | 37.56193 | 15.00141 | 5006 ft | 234 kts | 264° |
| 2026-05-08 12:34 | 37.56023 | 14.98103 | 5007 ft | 234 kts | 264° |
| 2026-05-08 12:34 | 37.55853 | 14.96064 | 5009 ft | 234 kts | 264° |
| 2026-05-08 12:34 | 37.55680 | 14.94029 | 5007 ft | 233 kts | 263° |
| 2026-05-08 12:35 | 37.55505 | 14.91984 | 5009 ft | 234 kts | 264° |
| 2026-05-08 12:35 | 37.55331 | 14.89942 | 5018 ft | 234 kts | 263° |
| 2026-05-08 12:35 | 37.55158 | 14.87908 | 5016 ft | 233 kts | 264° |
| 2026-05-08 12:35 | 37.54987 | 14.85903 | 5014 ft | 234 kts | 264° |
| 2026-05-08 12:36 | 37.54809 | 14.83853 | 5018 ft | 236 kts | 264° |
| 2026-05-08 12:36 | 37.54629 | 14.81809 | 5016 ft | 234 kts | 263° |
| 2026-05-08 12:36 | 37.54452 | 14.79770 | 5016 ft | 235 kts | 263° |
| 2026-05-08 12:36 | 37.54277 | 14.77740 | 5034 ft | 226 kts | 263° |
| 2026-05-08 12:37 | 37.54057 | 14.75823 | 5018 ft | 224 kts | 254° |
| 2026-05-08 12:37 | 37.53275 | 14.74147 | 4871 ft | 222 kts | 226° |
| 2026-05-08 12:37 | 37.51946 | 14.73188 | 4571 ft | 223 kts | 197° |
| 2026-05-08 12:37 | 37.50423 | 14.73186 | 4394 ft | 222 kts | 169° |
| 2026-05-08 12:38 | 37.49064 | 14.74131 | 4036 ft | 229 kts | 141° |
| 2026-05-08 12:38 | 37.47910 | 14.75521 | 3718 ft | 228 kts | 140° |
| 2026-05-08 12:38 | 37.46772 | 14.76897 | 3401 ft | 226 kts | 139° |
| 2026-05-08 12:38 | 37.45649 | 14.78265 | 3085 ft | 224 kts | 135° |
| 2026-05-08 12:39 | 37.44832 | 14.79934 | 3008 ft | 227 kts | 111° |
| 2026-05-08 12:39 | 37.44572 | 14.81885 | 3027 ft | 232 kts | 88° |
| 2026-05-08 12:39 | 37.44728 | 14.83899 | 3024 ft | 231 kts | 84° |
| 2026-05-08 12:39 | 37.44908 | 14.85908 | 2979 ft | 232 kts | 83° |
| 2026-05-08 12:40 | 37.45081 | 14.87892 | 2748 ft | 222 kts | 84° |
| 2026-05-08 12:40 | 37.45242 | 14.89756 | 2462 ft | 207 kts | 85° |
| 2026-05-08 12:40 | 37.45391 | 14.91494 | 2201 ft | 192 kts | 84° |
| 2026-05-08 12:40 | 37.45525 | 14.93062 | 1986 ft | 174 kts | 84° |
| 2026-05-08 12:41 | 37.45652 | 14.94543 | 1732 ft | 165 kts | 86° |
| 2026-05-08 12:41 | 37.45773 | 14.95972 | 1526 ft | 164 kts | 84° |
| 2026-05-08 12:41 | 37.45893 | 14.97383 | 1322 ft | 160 kts | 85° |
| 2026-05-08 12:41 | 37.46010 | 14.98757 | 1114 ft | 156 kts | 85° |
| 2026-05-08 12:42 | 37.46122 | 15.00083 | 892 ft | 149 kts | 84° |
| 2026-05-08 12:42 | 37.46221 | 15.01331 | 721 ft | 143 kts | 83° |
| 2026-05-08 12:42 | 37.46325 | 15.02563 | 504 ft | 140 kts | 83° |
| 2026-05-08 12:42 | 37.46423 | 15.03772 | 315 ft | 137 kts | 82° |
| 2026-05-08 12:43 | 37.46528 | 15.04969 | 125 ft | 138 kts | 83° |
| 2026-05-08 12:43 | 37.46636 | 15.06136 | 24 ft | 124 kts | 85° |
| 2026-05-08 12:43 | 37.46698 | 15.06862 | 23 ft | 42 kts | 84° |
| 2026-05-08 12:43 | 37.46725 | 15.07206 | 22 ft | 38 kts | 83° |
| 2026-05-08 12:44 | 37.46758 | 15.07508 | 23 ft | 26 kts | 82° |
| 2026-05-08 12:44 | 37.46819 | 15.07710 | 23 ft | 19 kts | 57° |
| 2026-05-08 12:44 | 37.46867 | 15.07789 | 22 ft | 8 kts | 52° |
| 2026-05-08 12:44 | 37.46919 | 15.07798 | 22 ft | 9 kts | 330° |
| 2026-05-08 12:45 | 37.46935 | 15.07723 | 22 ft | 10 kts | 265° |
| 2026-05-08 12:45 | 37.46928 | 15.07631 | 22 ft | 11 kts | 264° |
| 2026-05-08 12:45 | 37.46918 | 15.07525 | 22 ft | 13 kts | 263° |
| 2026-05-08 12:45 | 37.46909 | 15.07408 | 22 ft | 14 kts | 264° |
| 2026-05-08 12:46 | 37.46898 | 15.07279 | 22 ft | 15 kts | 264° |
| 2026-05-08 12:46 | 37.46885 | 15.07139 | 22 ft | 17 kts | 263° |
| 2026-05-08 12:46 | 37.46873 | 15.06987 | 22 ft | 18 kts | 265° |
| 2026-05-08 12:46 | 37.46860 | 15.06824 | 22 ft | 19 kts | 264° |
| 2026-05-08 12:47 | 37.46850 | 15.06712 | 25 ft | 9 kts | 263° |
| 2026-05-08 12:47 | 37.46844 | 15.06639 | 22 ft | 7 kts | 264° |
| 2026-05-08 12:47 | 37.46868 | 15.06601 | 22 ft | 7 kts | 7° |
| 2026-05-08 12:47 | 37.46910 | 15.06619 | 24 ft | 4 kts | 18° |
| 2026-05-08 12:48 | 37.46917 | 15.06622 | 23 ft | 0 kts | 18° |